Terminal Aerodrome Forecast
Issued by NWS

Home | Current Version | Previous Version | Text Only | Print | Product List | Glossary On
Versions: 1 2 3 4 5 6 7 8 9 10 11 12 13 14 15 16 17 18 19 20 21 22 23 24 25 26 27 28 29 30 31 32 33 34 35 36 37 38 39 40 41 42
000
FTUS41 KRNK 292117 AAA
TAFBCB
TAF AMD
KBCB 292117Z 2921/3018 07004KT P6SM VCTS SCT045CB BKN110
      TEMPO 2921/2923 4SM TSRA BKN035CB OVC070
     FM300300 00000KT P6SM SCT040 BKN120
     FM300900 00000KT 2SM BR BKN025
     FM301300 19004KT P6SM SCT050=

USA.gov is the U.S. government's official web portal to all federal, state and local government web resources and services.